sensor_id;sensor_type;location;lat;lon;timestamp;pressure;altitude;pressure_sealevel;temperature
51547;BMP180;37542;50.164;9.086;2022-08-25T00:01:20;100859.00;;;27.00
51547;BMP180;37542;50.164;9.086;2022-08-25T00:05:03;100844.00;;;26.90
51547;BMP180;37542;50.164;9.086;2022-08-25T00:08:44;100834.00;;;26.80
51547;BMP180;37542;50.164;9.086;2022-08-25T00:12:25;100844.00;;;26.80
51547;BMP180;37542;50.164;9.086;2022-08-25T00:16:06;100864.00;;;26.70
51547;BMP180;37542;50.164;9.086;2022-08-25T00:19:48;100864.00;;;26.70
51547;BMP180;37542;50.164;9.086;2022-08-25T00:23:29;100864.00;;;26.60
51547;BMP180;37542;50.164;9.086;2022-08-25T00:27:09;100854.00;;;26.60
51547;BMP180;37542;50.164;9.086;2022-08-25T00:30:52;100859.00;;;26.50
51547;BMP180;37542;50.164;9.086;2022-08-25T00:34:36;100861.00;;;26.50
51547;BMP180;37542;50.164;9.086;2022-08-25T00:38:17;100862.00;;;26.50
51547;BMP180;37542;50.164;9.086;2022-08-25T00:41:59;100849.00;;;26.30
51547;BMP180;37542;50.164;9.086;2022-08-25T00:45:39;100837.00;;;26.30
51547;BMP180;37542;50.164;9.086;2022-08-25T00:49:39;100851.00;;;26.30
51547;BMP180;37542;50.164;9.086;2022-08-25T00:53:21;100845.00;;;26.10
51547;BMP180;37542;50.164;9.086;2022-08-25T00:57:06;100813.00;;;26.20
51547;BMP180;37542;50.164;9.086;2022-08-25T01:00:53;100855.00;;;26.00
51547;BMP180;37542;50.164;9.086;2022-08-25T01:04:44;100862.00;;;25.90
51547;BMP180;37542;50.164;9.086;2022-08-25T01:08:28;100805.00;;;25.80
51547;BMP180;37542;50.164;9.086;2022-08-25T01:12:13;100814.00;;;26.00
51547;BMP180;37542;50.164;9.086;2022-08-25T01:15:56;100839.00;;;25.80
51547;BMP180;37542;50.164;9.086;2022-08-25T01:19:37;100867.00;;;26.00
51547;BMP180;37542;50.164;9.086;2022-08-25T01:23:18;100858.00;;;25.60
51547;BMP180;37542;50.164;9.086;2022-08-25T01:27:03;100851.00;;;25.90
51547;BMP180;37542;50.164;9.086;2022-08-25T01:30:51;100837.00;;;25.80
51547;BMP180;37542;50.164;9.086;2022-08-25T01:34:39;100845.00;;;25.80
51547;BMP180;37542;50.164;9.086;2022-08-25T01:38:20;100788.00;;;25.50
51547;BMP180;37542;50.164;9.086;2022-08-25T01:45:46;100759.00;;;25.40
51547;BMP180;37542;50.164;9.086;2022-08-25T01:49:28;100873.00;;;25.60
51547;BMP180;37542;50.164;9.086;2022-08-25T01:53:29;100863.00;;;25.30
51547;BMP180;37542;50.164;9.086;2022-08-25T01:57:10;100858.00;;;25.50
51547;BMP180;37542;50.164;9.086;2022-08-25T02:00:58;100884.00;;;25.30
51547;BMP180;37542;50.164;9.086;2022-08-25T02:04:39;100877.00;;;25.20
51547;BMP180;37542;50.164;9.086;2022-08-25T02:08:20;100846.00;;;25.30
51547;BMP180;37542;50.164;9.086;2022-08-25T02:12:03;100837.00;;;25.30
51547;BMP180;37542;50.164;9.086;2022-08-25T02:15:48;100851.00;;;25.20
51547;BMP180;37542;50.164;9.086;2022-08-25T02:19:30;100850.00;;;25.10
51547;BMP180;37542;50.164;9.086;2022-08-25T02:23:11;100855.00;;;25.10
51547;BMP180;37542;50.164;9.086;2022-08-25T02:26:52;100868.00;;;25.10
51547;BMP180;37542;50.164;9.086;2022-08-25T02:30:35;100836.00;;;25.10
51547;BMP180;37542;50.164;9.086;2022-08-25T02:34:16;100836.00;;;25.10
51547;BMP180;37542;50.164;9.086;2022-08-25T02:37:57;100849.00;;;25.00
51547;BMP180;37542;50.164;9.086;2022-08-25T02:41:38;100848.00;;;24.90
51547;BMP180;37542;50.164;9.086;2022-08-25T02:45:20;100861.00;;;24.90
51547;BMP180;37542;50.164;9.086;2022-08-25T02:49:00;100862.00;;;24.90
51547;BMP180;37542;50.164;9.086;2022-08-25T02:52:41;100866.00;;;24.90
51547;BMP180;37542;50.164;9.086;2022-08-25T02:56:23;100844.00;;;24.80
51547;BMP180;37542;50.164;9.086;2022-08-25T03:00:31;100811.00;;;24.80
51547;BMP180;37542;50.164;9.086;2022-08-25T03:04:12;100832.00;;;24.50
51547;BMP180;37542;50.164;9.086;2022-08-25T03:07:54;100826.00;;;24.70
51547;BMP180;37542;50.164;9.086;2022-08-25T03:11:39;100852.00;;;24.70
51547;BMP180;37542;50.164;9.086;2022-08-25T03:15:20;100873.00;;;24.60
51547;BMP180;37542;50.164;9.086;2022-08-25T03:19:01;100857.00;;;24.60
51547;BMP180;37542;50.164;9.086;2022-08-25T03:22:42;100821.00;;;24.30
51547;BMP180;37542;50.164;9.086;2022-08-25T03:26:25;100809.00;;;24.30
51547;BMP180;37542;50.164;9.086;2022-08-25T03:30:31;100805.00;;;24.30
51547;BMP180;37542;50.164;9.086;2022-08-25T03:34:23;100801.00;;;24.40
51547;BMP180;37542;50.164;9.086;2022-08-25T03:38:11;100819.00;;;24.40
51547;BMP180;37542;50.164;9.086;2022-08-25T03:41:52;100805.00;;;24.40
51547;BMP180;37542;50.164;9.086;2022-08-25T03:45:40;100834.00;;;24.20
51547;BMP180;37542;50.164;9.086;2022-08-25T03:49:23;100820.00;;;24.30
51547;BMP180;37542;50.164;9.086;2022-08-25T03:53:04;100826.00;;;24.20
51547;BMP180;37542;50.164;9.086;2022-08-25T03:56:45;100833.00;;;24.30
51547;BMP180;37542;50.164;9.086;2022-08-25T04:00:29;100796.00;;;24.10
51547;BMP180;37542;50.164;9.086;2022-08-25T04:04:15;100853.00;;;24.20
51547;BMP180;37542;50.164;9.086;2022-08-25T04:08:01;100858.00;;;24.10
51547;BMP180;37542;50.164;9.086;2022-08-25T04:11:42;100869.00;;;23.90
51547;BMP180;37542;50.164;9.086;2022-08-25T04:15:23;100860.00;;;24.00
51547;BMP180;37542;50.164;9.086;2022-08-25T04:19:06;100838.00;;;24.00
51547;BMP180;37542;50.164;9.086;2022-08-25T04:22:48;100835.00;;;24.00
51547;BMP180;37542;50.164;9.086;2022-08-25T04:26:43;100838.00;;;24.00
51547;BMP180;37542;50.164;9.086;2022-08-25T04:30:24;100827.00;;;23.90
51547;BMP180;37542;50.164;9.086;2022-08-25T04:34:05;100805.00;;;23.90
51547;BMP180;37542;50.164;9.086;2022-08-25T04:37:46;100825.00;;;23.90
51547;BMP180;37542;50.164;9.086;2022-08-25T04:41:28;100819.00;;;23.80
51547;BMP180;37542;50.164;9.086;2022-08-25T04:45:10;100843.00;;;23.70
51547;BMP180;37542;50.164;9.086;2022-08-25T04:48:56;100813.00;;;23.70
51547;BMP180;37542;50.164;9.086;2022-08-25T04:52:37;100833.00;;;23.60
51547;BMP180;37542;50.164;9.086;2022-08-25T04:56:21;100830.00;;;23.70
51547;BMP180;37542;50.164;9.086;2022-08-25T05:00:05;100835.00;;;23.60
51547;BMP180;37542;50.164;9.086;2022-08-25T05:03:55;100835.00;;;23.60
51547;BMP180;37542;50.164;9.086;2022-08-25T05:07:39;100844.00;;;23.60
51547;BMP180;37542;50.164;9.086;2022-08-25T05:11:25;100844.00;;;23.60
51547;BMP180;37542;50.164;9.086;2022-08-25T05:15:06;100849.00;;;23.60
51547;BMP180;37542;50.164;9.086;2022-08-25T05:19:10;100851.00;;;23.60
51547;BMP180;37542;50.164;9.086;2022-08-25T05:22:52;100830.00;;;23.60
51547;BMP180;37542;50.164;9.086;2022-08-25T05:26:36;100839.00;;;23.60
51547;BMP180;37542;50.164;9.086;2022-08-25T05:49:10;100830.00;;;23.90
51547;BMP180;37542;50.164;9.086;2022-08-25T05:53:06;100835.00;;;24.10
51547;BMP180;37542;50.164;9.086;2022-08-25T05:57:31;100844.00;;;24.20
51547;BMP180;37542;50.164;9.086;2022-08-25T06:01:34;100807.00;;;24.50
51547;BMP180;37542;50.164;9.086;2022-08-25T06:06:27;100746.00;;;24.70
51547;BMP180;37542;50.164;9.086;2022-08-25T06:10:19;100802.00;;;24.80
51547;BMP180;37542;50.164;9.086;2022-08-25T06:14:10;100804.00;;;25.10
51547;BMP180;37542;50.164;9.086;2022-08-25T06:22:49;100804.00;;;25.60
51547;BMP180;37542;50.164;9.086;2022-08-25T06:26:30;100792.00;;;25.80
51547;BMP180;37542;50.164;9.086;2022-08-25T06:30:15;100796.00;;;25.90
51547;BMP180;37542;50.164;9.086;2022-08-25T06:34:34;100800.00;;;26.00
51547;BMP180;37542;50.164;9.086;2022-08-25T06:56:40;100777.00;;;26.80
51547;BMP180;37542;50.164;9.086;2022-08-25T07:00:21;100721.00;;;26.80
51547;BMP180;37542;50.164;9.086;2022-08-25T07:04:05;100716.00;;;27.10
51547;BMP180;37542;50.164;9.086;2022-08-25T07:07:46;100751.00;;;27.20
51547;BMP180;37542;50.164;9.086;2022-08-25T07:11:27;100779.00;;;27.40
51547;BMP180;37542;50.164;9.086;2022-08-25T07:15:09;100774.00;;;27.50
51547;BMP180;37542;50.164;9.086;2022-08-25T07:18:50;100786.00;;;27.60
51547;BMP180;37542;50.164;9.086;2022-08-25T07:22:31;100787.00;;;27.70
51547;BMP180;37542;50.164;9.086;2022-08-25T07:26:23;100791.00;;;27.90
51547;BMP180;37542;50.164;9.086;2022-08-25T07:30:06;100777.00;;;28.00
51547;BMP180;37542;50.164;9.086;2022-08-25T07:33:47;100763.00;;;28.10
51547;BMP180;37542;50.164;9.086;2022-08-25T07:37:51;100771.00;;;28.20
51547;BMP180;37542;50.164;9.086;2022-08-25T07:41:37;100765.00;;;28.30
51547;BMP180;37542;50.164;9.086;2022-08-25T07:45:20;100774.00;;;28.40
51547;BMP180;37542;50.164;9.086;2022-08-25T07:49:06;100773.00;;;28.50
51547;BMP180;37542;50.164;9.086;2022-08-25T07:52:47;100771.00;;;28.60
51547;BMP180;37542;50.164;9.086;2022-08-25T07:56:28;100764.00;;;28.70
51547;BMP180;37542;50.164;9.086;2022-08-25T08:00:12;100792.00;;;28.90
51547;BMP180;37542;50.164;9.086;2022-08-25T08:03:54;100778.00;;;29.00
51547;BMP180;37542;50.164;9.086;2022-08-25T08:07:36;100760.00;;;29.10
51547;BMP180;37542;50.164;9.086;2022-08-25T08:11:24;100776.00;;;29.20
51547;BMP180;37542;50.164;9.086;2022-08-25T08:15:07;100781.00;;;29.30
51547;BMP180;37542;50.164;9.086;2022-08-25T08:18:49;100775.00;;;29.40
51547;BMP180;37542;50.164;9.086;2022-08-25T08:22:29;100764.00;;;29.60
51547;BMP180;37542;50.164;9.086;2022-08-25T08:26:11;100756.00;;;29.60
51547;BMP180;37542;50.164;9.086;2022-08-25T08:29:52;100770.00;;;29.70
51547;BMP180;37542;50.164;9.086;2022-08-25T08:33:33;100766.00;;;29.80
51547;BMP180;37542;50.164;9.086;2022-08-25T08:37:14;100755.00;;;30.00
51547;BMP180;37542;50.164;9.086;2022-08-25T08:45:37;100757.00;;;30.20
51547;BMP180;37542;50.164;9.086;2022-08-25T08:54:04;100750.00;;;30.40
51547;BMP180;37542;50.164;9.086;2022-08-25T09:08:46;100734.00;;;30.80
51547;BMP180;37542;50.164;9.086;2022-08-25T09:14:08;100740.00;;;31.00
51547;BMP180;37542;50.164;9.086;2022-08-25T09:18:25;100688.00;;;31.10
51547;BMP180;37542;50.164;9.086;2022-08-25T09:27:16;100721.00;;;31.50
51547;BMP180;37542;50.164;9.086;2022-08-25T09:31:04;100720.00;;;31.60
51547;BMP180;37542;50.164;9.086;2022-08-25T09:35:26;100717.00;;;31.80
51547;BMP180;37542;50.164;9.086;2022-08-25T09:39:16;100703.00;;;31.90
51547;BMP180;37542;50.164;9.086;2022-08-25T09:47:49;100710.00;;;32.00
51547;BMP180;37542;50.164;9.086;2022-08-25T09:51:38;100706.00;;;32.30
51547;BMP180;37542;50.164;9.086;2022-08-25T09:56:03;100702.00;;;32.30
51547;BMP180;37542;50.164;9.086;2022-08-25T10:00:38;100692.00;;;32.50
51547;BMP180;37542;50.164;9.086;2022-08-25T10:13:34;100604.00;;;32.80
51547;BMP180;37542;50.164;9.086;2022-08-25T10:22:42;100578.00;;;33.30
51547;BMP180;37542;50.164;9.086;2022-08-25T10:32:18;100626.00;;;33.80
51547;BMP180;37542;50.164;9.086;2022-08-25T11:11:05;100582.00;;;35.10
51547;BMP180;37542;50.164;9.086;2022-08-25T11:15:21;100532.00;;;35.40
51547;BMP180;37542;50.164;9.086;2022-08-25T11:19:30;100552.00;;;35.70
51547;BMP180;37542;50.164;9.086;2022-08-25T11:23:23;100578.00;;;36.00
51547;BMP180;37542;50.164;9.086;2022-08-25T11:31:20;100583.00;;;36.50
51547;BMP180;37542;50.164;9.086;2022-08-25T11:35:10;100573.00;;;36.70
51547;BMP180;37542;50.164;9.086;2022-08-25T11:43:35;100559.00;;;37.00
51547;BMP180;37542;50.164;9.086;2022-08-25T11:51:43;100562.00;;;37.70
51547;BMP180;37542;50.164;9.086;2022-08-25T12:00:58;100548.00;;;38.30
51547;BMP180;37542;50.164;9.086;2022-08-25T12:08:12;100534.00;;;38.40
51547;BMP180;37542;50.164;9.086;2022-08-25T12:16:42;100538.00;;;38.40
51547;BMP180;37542;50.164;9.086;2022-08-25T12:41:51;100533.00;;;37.80
51547;BMP180;37542;50.164;9.086;2022-08-25T12:45:38;100524.00;;;37.90
51547;BMP180;37542;50.164;9.086;2022-08-25T12:58:05;100537.00;;;37.90
51547;BMP180;37542;50.164;9.086;2022-08-25T13:02:16;100523.00;;;37.90
51547;BMP180;37542;50.164;9.086;2022-08-25T13:06:56;100520.00;;;37.70
51547;BMP180;37542;50.164;9.086;2022-08-25T13:15:43;100506.00;;;37.90
51547;BMP180;37542;50.164;9.086;2022-08-25T13:19:27;100483.00;;;38.20
51547;BMP180;37542;50.164;9.086;2022-08-25T13:23:09;100501.00;;;38.40
51547;BMP180;37542;50.164;9.086;2022-08-25T13:27:02;100488.00;;;38.40
51547;BMP180;37542;50.164;9.086;2022-08-25T13:30:44;100496.00;;;38.40
51547;BMP180;37542;50.164;9.086;2022-08-25T13:34:34;100485.00;;;38.40
51547;BMP180;37542;50.164;9.086;2022-08-25T13:38:18;100490.00;;;38.40
51547;BMP180;37542;50.164;9.086;2022-08-25T13:42:15;100486.00;;;38.50
51547;BMP180;37542;50.164;9.086;2022-08-25T13:46:17;100436.00;;;38.30
51547;BMP180;37542;50.164;9.086;2022-08-25T13:50:34;100500.00;;;38.10
51547;BMP180;37542;50.164;9.086;2022-08-25T14:13:58;100444.00;;;37.40
51547;BMP180;37542;50.164;9.086;2022-08-25T14:17:46;100467.00;;;37.40
51547;BMP180;37542;50.164;9.086;2022-08-25T14:21:37;100437.00;;;37.20
51547;BMP180;37542;50.164;9.086;2022-08-25T14:25:27;100451.00;;;37.40
51547;BMP180;37542;50.164;9.086;2022-08-25T14:29:11;100470.00;;;37.40
51547;BMP180;37542;50.164;9.086;2022-08-25T14:32:56;100442.00;;;37.50
51547;BMP180;37542;50.164;9.086;2022-08-25T14:36:49;100426.00;;;37.30
51547;BMP180;37542;50.164;9.086;2022-08-25T14:57:37;100402.00;;;36.80
51547;BMP180;37542;50.164;9.086;2022-08-25T15:05:25;100374.00;;;36.80
51547;BMP180;37542;50.164;9.086;2022-08-25T15:09:18;100384.00;;;36.40
51547;BMP180;37542;50.164;9.086;2022-08-25T15:21:52;100425.00;;;36.20
51547;BMP180;37542;50.164;9.086;2022-08-25T15:25:36;100381.00;;;36.50
51547;BMP180;37542;50.164;9.086;2022-08-25T15:39:26;100400.00;;;36.50
51547;BMP180;37542;50.164;9.086;2022-08-25T15:43:08;100360.00;;;36.50
51547;BMP180;37542;50.164;9.086;2022-08-25T15:47:15;100405.00;;;36.60
51547;BMP180;37542;50.164;9.086;2022-08-25T15:51:05;100372.00;;;36.50
51547;BMP180;37542;50.164;9.086;2022-08-25T15:59:57;100385.00;;;36.60
51547;BMP180;37542;50.164;9.086;2022-08-25T16:27:55;100387.00;;;36.90
51547;BMP180;37542;50.164;9.086;2022-08-25T16:31:35;100366.00;;;36.90
51547;BMP180;37542;50.164;9.086;2022-08-25T16:35:16;100365.00;;;36.90
51547;BMP180;37542;50.164;9.086;2022-08-25T16:38:58;100376.00;;;36.90
51547;BMP180;37542;50.164;9.086;2022-08-25T16:42:40;100373.00;;;36.90
51547;BMP180;37542;50.164;9.086;2022-08-25T16:46:21;100366.00;;;36.80
51547;BMP180;37542;50.164;9.086;2022-08-25T16:50:10;100364.00;;;36.80
51547;BMP180;37542;50.164;9.086;2022-08-25T16:54:25;100334.00;;;36.80
51547;BMP180;37542;50.164;9.086;2022-08-25T17:12:04;100347.00;;;36.60
51547;BMP180;37542;50.164;9.086;2022-08-25T17:15:46;100364.00;;;36.60
51547;BMP180;37542;50.164;9.086;2022-08-25T17:19:30;100311.00;;;36.60
51547;BMP180;37542;50.164;9.086;2022-08-25T17:28:20;100357.00;;;36.50
51547;BMP180;37542;50.164;9.086;2022-08-25T17:32:25;100341.00;;;36.00
51547;BMP180;37542;50.164;9.086;2022-08-25T17:36:20;100290.00;;;36.30
51547;BMP180;37542;50.164;9.086;2022-08-25T17:40:08;100330.00;;;36.30
51547;BMP180;37542;50.164;9.086;2022-08-25T17:44:25;100369.00;;;36.20
51547;BMP180;37542;50.164;9.086;2022-08-25T17:49:00;100357.00;;;36.10
51547;BMP180;37542;50.164;9.086;2022-08-25T17:53:00;100345.00;;;35.90
51547;BMP180;37542;50.164;9.086;2022-08-25T17:56:44;100344.00;;;35.90
51547;BMP180;37542;50.164;9.086;2022-08-25T18:15:38;100375.00;;;34.90
51547;BMP180;37542;50.164;9.086;2022-08-25T18:19:22;100378.00;;;34.80
51547;BMP180;37542;50.164;9.086;2022-08-25T18:23:03;100331.00;;;34.60
51547;BMP180;37542;50.164;9.086;2022-08-25T18:27:12;100381.00;;;34.40
51547;BMP180;37542;50.164;9.086;2022-08-25T18:31:29;100384.00;;;34.20
51547;BMP180;37542;50.164;9.086;2022-08-25T18:35:48;100356.00;;;33.70
51547;BMP180;37542;50.164;9.086;2022-08-25T18:39:37;100385.00;;;33.70
51547;BMP180;37542;50.164;9.086;2022-08-25T18:43:39;100346.00;;;33.50
51547;BMP180;37542;50.164;9.086;2022-08-25T18:47:35;100377.00;;;33.30
51547;BMP180;37542;50.164;9.086;2022-08-25T18:51:21;100393.00;;;33.20
51547;BMP180;37542;50.164;9.086;2022-08-25T18:55:03;100385.00;;;33.10
51547;BMP180;37542;50.164;9.086;2022-08-25T19:04:37;100387.00;;;32.60
51547;BMP180;37542;50.164;9.086;2022-08-25T19:08:24;100336.00;;;32.50
51547;BMP180;37542;50.164;9.086;2022-08-25T19:12:05;100391.00;;;32.40
51547;BMP180;37542;50.164;9.086;2022-08-25T19:16:09;100403.00;;;32.10
51547;BMP180;37542;50.164;9.086;2022-08-25T19:19:50;100396.00;;;32.00
51547;BMP180;37542;50.164;9.086;2022-08-25T19:23:34;100399.00;;;31.90
51547;BMP180;37542;50.164;9.086;2022-08-25T19:27:17;100410.00;;;31.80
51547;BMP180;37542;50.164;9.086;2022-08-25T19:31:02;100406.00;;;31.70
51547;BMP180;37542;50.164;9.086;2022-08-25T19:35:50;100339.00;;;31.50
51547;BMP180;37542;50.164;9.086;2022-08-25T19:39:34;100345.00;;;31.30
51547;BMP180;37542;50.164;9.086;2022-08-25T19:43:20;100388.00;;;31.20
51547;BMP180;37542;50.164;9.086;2022-08-25T19:47:09;100414.00;;;31.10
51547;BMP180;37542;50.164;9.086;2022-08-25T19:50:54;100360.00;;;31.00
51547;BMP180;37542;50.164;9.086;2022-08-25T20:00:17;100362.00;;;30.60
51547;BMP180;37542;50.164;9.086;2022-08-25T20:05:16;100421.00;;;30.50
51547;BMP180;37542;50.164;9.086;2022-08-25T20:09:24;100394.00;;;30.50
51547;BMP180;37542;50.164;9.086;2022-08-25T20:13:47;100402.00;;;30.20
51547;BMP180;37542;50.164;9.086;2022-08-25T20:17:37;100397.00;;;30.20
51547;BMP180;37542;50.164;9.086;2022-08-25T20:21:33;100398.00;;;30.10
51547;BMP180;37542;50.164;9.086;2022-08-25T20:25:25;100432.00;;;30.00
51547;BMP180;37542;50.164;9.086;2022-08-25T20:29:10;100400.00;;;29.90
51547;BMP180;37542;50.164;9.086;2022-08-25T20:32:54;100338.00;;;29.90
51547;BMP180;37542;50.164;9.086;2022-08-25T20:36:38;100437.00;;;29.70
51547;BMP180;37542;50.164;9.086;2022-08-25T20:40:25;100398.00;;;29.70
51547;BMP180;37542;50.164;9.086;2022-08-25T20:49:17;100356.00;;;29.50
51547;BMP180;37542;50.164;9.086;2022-08-25T20:53:03;100418.00;;;29.40
51547;BMP180;37542;50.164;9.086;2022-08-25T20:56:45;100428.00;;;29.30
51547;BMP180;37542;50.164;9.086;2022-08-25T21:00:26;100382.00;;;29.10
51547;BMP180;37542;50.164;9.086;2022-08-25T21:09:31;100422.00;;;29.00
51547;BMP180;37542;50.164;9.086;2022-08-25T21:17:04;100420.00;;;28.90
51547;BMP180;37542;50.164;9.086;2022-08-25T21:20:45;100423.00;;;28.90
51547;BMP180;37542;50.164;9.086;2022-08-25T21:24:27;100431.00;;;28.80
51547;BMP180;37542;50.164;9.086;2022-08-25T21:28:08;100417.00;;;28.70
51547;BMP180;37542;50.164;9.086;2022-08-25T21:31:50;100429.00;;;28.70
51547;BMP180;37542;50.164;9.086;2022-08-25T21:35:30;100428.00;;;28.50
51547;BMP180;37542;50.164;9.086;2022-08-25T21:39:12;100415.00;;;28.50
51547;BMP180;37542;50.164;9.086;2022-08-25T21:42:59;100426.00;;;28.50
51547;BMP180;37542;50.164;9.086;2022-08-25T21:46:44;100425.00;;;28.30
51547;BMP180;37542;50.164;9.086;2022-08-25T21:50:25;100435.00;;;28.40
51547;BMP180;37542;50.164;9.086;2022-08-25T21:54:11;100338.00;;;28.30
51547;BMP180;37542;50.164;9.086;2022-08-25T21:57:56;100399.00;;;28.30
51547;BMP180;37542;50.164;9.086;2022-08-25T22:01:38;100380.00;;;28.20
51547;BMP180;37542;50.164;9.086;2022-08-25T22:05:22;100427.00;;;28.20
51547;BMP180;37542;50.164;9.086;2022-08-25T22:09:11;100431.00;;;28.20
51547;BMP180;37542;50.164;9.086;2022-08-25T22:13:02;100416.00;;;28.10
51547;BMP180;37542;50.164;9.086;2022-08-25T22:16:53;100421.00;;;28.00
51547;BMP180;37542;50.164;9.086;2022-08-25T22:20:34;100422.00;;;27.90
51547;BMP180;37542;50.164;9.086;2022-08-25T22:24:18;100393.00;;;28.00
51547;BMP180;37542;50.164;9.086;2022-08-25T22:27:59;100390.00;;;27.90
51547;BMP180;37542;50.164;9.086;2022-08-25T22:31:40;100373.00;;;27.90
51547;BMP180;37542;50.164;9.086;2022-08-25T22:35:21;100420.00;;;27.80
51547;BMP180;37542;50.164;9.086;2022-08-25T22:39:09;100425.00;;;27.70
51547;BMP180;37542;50.164;9.086;2022-08-25T22:42:53;100419.00;;;27.80
51547;BMP180;37542;50.164;9.086;2022-08-25T22:46:34;100378.00;;;27.80
51547;BMP180;37542;50.164;9.086;2022-08-25T22:50:18;100425.00;;;27.50
51547;BMP180;37542;50.164;9.086;2022-08-25T22:54:00;100394.00;;;27.70
51547;BMP180;37542;50.164;9.086;2022-08-25T22:57:43;100411.00;;;27.70
51547;BMP180;37542;50.164;9.086;2022-08-25T23:01:32;100413.00;;;27.60
51547;BMP180;37542;50.164;9.086;2022-08-25T23:05:14;100385.00;;;27.40
51547;BMP180;37542;50.164;9.086;2022-08-25T23:08:55;100354.00;;;27.60
51547;BMP180;37542;50.164;9.086;2022-08-25T23:12:38;100405.00;;;27.50
51547;BMP180;37542;50.164;9.086;2022-08-25T23:16:29;100411.00;;;27.50
51547;BMP180;37542;50.164;9.086;2022-08-25T23:20:11;100362.00;;;27.50
51547;BMP180;37542;50.164;9.086;2022-08-25T23:24:14;100360.00;;;27.40
51547;BMP180;37542;50.164;9.086;2022-08-25T23:27:55;100388.00;;;27.30
51547;BMP180;37542;50.164;9.086;2022-08-25T23:31:40;100404.00;;;27.40
51547;BMP180;37542;50.164;9.086;2022-08-25T23:35:22;100342.00;;;27.40
51547;BMP180;37542;50.164;9.086;2022-08-25T23:39:11;100405.00;;;27.40
51547;BMP180;37542;50.164;9.086;2022-08-25T23:42:53;100363.00;;;27.30
51547;BMP180;37542;50.164;9.086;2022-08-25T23:46:37;100342.00;;;27.30
51547;BMP180;37542;50.164;9.086;2022-08-25T23:50:18;100405.00;;;27.20
51547;BMP180;37542;50.164;9.086;2022-08-25T23:54:05;100376.00;;;27.10
51547;BMP180;37542;50.164;9.086;2022-08-25T23:57:46;100390.00;;;27.00
